Дата Время Давление Темп. Влажн. Скор.ветра Напр.ветра Макс.ветер Осадки/час Осадки
21.10.21 05:00 734.8 8.2 95.5 2 221 7 0 0.6
21.10.21 04:00 735.2 7.2 95.2 3.1 191 7.4 0 0.6
21.10.21 03:00 736 6.3 94.6 3.1 186 8.1 0 0.6
21.10.21 02:00 736.2 5.5 94.2 3.1 192 8.1 0.2 0.6
21.10.21 01:00 737 4.9 93.7 3.5 202 9.6 0.4 0.4
21.10.21 00:00 737.9 4.1 93.5 3.7 193 9.1 0.2 4.4
20.10.21 23:00 738.6 3.4 93.1 3 194 9.2 0 4.2
20.10.21 22:00 739.7 2.6 92.3 3.4 200 7.9 1.8 4.2
20.10.21 21:00 740.8 2.2 89.9 3.5 193 8.7 1.4 2.4
20.10.21 20:00 742 2.1 85 2.4 195 8.3 0.6 1
20.10.21 19:00 743.1 2 81.3 3.3 189 8.9 0.2 0.4
20.10.21 18:00 744.5 2.7 72.8 3.2 186 7.8 0 0.2
20.10.21 17:00 745.4 3.7 61.2 3.7 189 7.8 0 0.2
20.10.21 16:00 746.2 3.9 59.9 3.1 190 8.7 0 0.2
20.10.21 15:00 747.2 3.9 59.2 3.5 196 7.5 0 0.2
20.10.21 14:00 747.8 4 61.8 2.5 215 6.8 0.2 0.2
20.10.21 13:00 748.5 4.7 59.5 2.4 209 5.8 0 0
20.10.21 12:00 749 4.8 60.9 1.8 235 6.1 0 0
20.10.21 11:00 749.3 2.9 73.8 2.6 200 5.7 0 0
20.10.21 10:00 749.8 1.1 82.4 2.1 198 4 0 0
20.10.21 09:00 750.1 0.4 88.5 1.1 232 2.8 0 0
20.10.21 08:00 750.2 -0.4 89.1 0.8 224 2.4 0 0
20.10.21 07:00 750.3 -0.7 87.1 0.7 266 2.4 0 0
20.10.21 06:00 750.2 -0.4 86.4 1 335 2.8 0 0